Time;durP1;ratioP1;P1;durP2;ratioP2;P2;SDS_P1;SDS_P2;PMS_P1;PMS_P2;Temp;Humidity;BMP_temperature;BMP_pressure;BME280_temperature;BME280_humidity;BME280_pressure;Samples;Min_cycle;Max_cycle;Signal;HPM_P1;HPM_P2
2023/04/04 00:00:44;;;;;;;11.27;5.43;;;11.30;82.80;;;;;;4592632;19;20476;-32
2023/04/04 00:02:23;;;;;;;10.23;3.80;;;11.30;82.80;;;;;;4592923;19;20464;-30
2023/04/04 00:04:00;;;;;;;11.03;5.30;;;11.30;83.00;;;;;;4593016;19;20444;-34
2023/04/04 00:05:34;;;;;;;6.90;4.00;;;11.20;82.90;;;;;;4593367;19;20402;-32
2023/04/04 00:07:10;;;;;;;11.20;5.87;;;11.30;82.80;;;;;;4592813;19;20401;-30
2023/04/04 00:08:42;;;;;;;8.83;5.20;;;11.30;82.70;;;;;;4591587;19;20461;-30
2023/04/04 00:10:14;;;;;;;8.25;4.57;;;11.30;82.80;;;;;;4591857;19;20468;-32
2023/04/04 00:11:46;;;;;;;8.50;4.03;;;11.20;83.20;;;;;;4592032;19;20011;-31
2023/04/04 00:13:18;;;;;;;8.53;4.10;;;11.20;82.70;;;;;;4591336;19;21119;-34
2023/04/04 00:14:51;;;;;;;8.77;4.10;;;11.10;82.60;;;;;;4591366;19;20524;-34
2023/04/04 00:16:23;;;;;;;8.73;4.60;;;11.10;83.10;;;;;;4592073;19;20819;-31
2023/04/04 00:17:57;;;;;;;11.17;4.90;;;11.20;83.00;;;;;;4590187;19;20444;-34
2023/04/04 00:19:28;;;;;;;8.05;4.25;;;11.20;82.80;;;;;;4591783;19;20437;-32
2023/04/04 00:21:00;;;;;;;9.03;3.80;;;11.20;82.50;;;;;;4592534;19;20094;-31
2023/04/04 00:22:33;;;;;;;8.37;3.80;;;11.20;82.90;;;;;;4592585;19;20444;-31
2023/04/04 00:24:04;;;;;;;7.25;4.13;;;11.30;83.20;;;;;;4593165;19;20468;-32
2023/04/04 00:25:37;;;;;;;10.13;4.90;;;11.30;83.40;;;;;;4592299;19;20006;-30
2023/04/04 00:27:11;;;;;;;9.03;4.30;;;11.30;83.00;;;;;;4591132;19;20463;-34
2023/04/04 00:28:42;;;;;;;12.45;4.68;;;11.30;82.50;;;;;;4591501;19;20425;-30
2023/04/04 00:30:14;;;;;;;7.85;3.85;;;11.30;82.90;;;;;;4591670;19;20006;-30
2023/04/04 00:31:48;;;;;;;6.60;3.17;;;11.30;83.70;;;;;;4592191;19;20014;-33
2023/04/04 00:33:20;;;;;;;5.23;3.53;;;11.30;82.90;;;;;;4590965;19;20433;-31
2023/04/04 00:34:52;;;;;;;5.95;3.80;;;11.20;82.80;;;;;;4592227;19;20437;-30
2023/04/04 00:36:24;;;;;;;7.00;3.75;;;11.10;82.70;;;;;;4591527;19;20014;-32
2023/04/04 00:37:57;;;;;;;8.40;4.90;;;11.10;82.70;;;;;;4591729;19;20015;-31
2023/04/04 00:39:28;;;;;;;8.93;4.15;;;11.20;83.00;;;;;;4592094;19;20458;-31
2023/04/04 00:41:01;;;;;;;7.27;4.00;;;11.20;83.10;;;;;;4592818;19;20010;-32
2023/04/04 00:42:33;;;;;;;9.50;4.72;;;11.20;83.40;;;;;;4591078;19;20440;-30
2023/04/04 00:44:05;;;;;;;9.93;6.13;;;11.20;83.20;;;;;;4590837;19;20006;-31
2023/04/04 00:45:37;;;;;;;10.63;4.70;;;11.20;82.80;;;;;;4591020;19;20433;-30
2023/04/04 00:47:10;;;;;;;11.43;4.80;;;11.20;83.00;;;;;;4590667;19;20444;-30
2023/04/04 00:48:43;;;;;;;10.67;3.90;;;11.20;82.90;;;;;;4591305;19;20444;-32
2023/04/04 00:50:14;;;;;;;7.82;3.78;;;11.30;83.30;;;;;;4591068;19;20457;-32
2023/04/04 00:51:46;;;;;;;8.23;3.87;;;11.20;83.00;;;;;;4591972;19;20014;-32
2023/04/04 00:53:18;;;;;;;10.02;3.58;;;11.20;83.30;;;;;;4592370;19;20417;-30
2023/04/04 00:54:50;;;;;;;8.47;4.17;;;11.20;83.00;;;;;;4591461;19;20026;-29
2023/04/04 00:56:22;;;;;;;10.60;4.47;;;11.20;82.90;;;;;;4590564;19;20440;-31
2023/04/04 00:57:53;;;;;;;9.40;4.80;;;11.20;83.60;;;;;;4591309;19;20356;-32
2023/04/04 00:59:28;;;;;;;8.87;4.57;;;11.20;83.40;;;;;;4591848;19;20795;-31
2023/04/04 01:01:01;;;;;;;6.90;4.17;;;11.20;83.10;;;;;;4590054;19;20449;-33
2023/04/04 01:02:37;;;;;;;9.53;5.30;;;11.10;82.90;;;;;;4590721;19;20432;-31
2023/04/04 01:04:10;;;;;;;9.30;4.33;;;11.10;83.10;;;;;;4591465;19;20478;-31
2023/04/04 01:05:42;;;;;;;7.67;4.10;;;11.00;83.30;;;;;;4590447;19;20441;-31
2023/04/04 01:07:14;;;;;;;8.10;4.50;;;11.10;83.40;;;;;;4591179;19;20479;-30
2023/04/04 01:08:46;;;;;;;8.53;4.40;;;11.00;83.10;;;;;;4590644;19;20015;-30
2023/04/04 01:10:17;;;;;;;10.48;4.90;;;11.00;83.70;;;;;;4588854;19;20476;-31
2023/04/04 01:11:50;;;;;;;10.20;4.93;;;11.00;83.40;;;;;;4591606;19;20007;-32
2023/04/04 01:13:21;;;;;;;7.90;4.97;;;11.10;83.40;;;;;;4590309;19;20919;-30
2023/04/04 01:14:52;;;;;;;9.50;4.35;;;11.10;83.50;;;;;;4591131;19;20011;-31
2023/04/04 01:16:24;;;;;;;8.50;4.93;;;11.10;83.70;;;;;;4591267;19;20075;-31
2023/04/04 01:17:57;;;;;;;7.25;3.97;;;11.10;83.80;;;;;;4592158;19;20022;-32
2023/04/04 01:19:34;;;;;;;8.67;4.53;;;11.10;83.80;;;;;;4591056;19;20010;-31
2023/04/04 01:21:09;;;;;;;9.10;4.80;;;11.10;83.60;;;;;;4589644;19;20463;-31
2023/04/04 01:22:42;;;;;;;8.33;4.40;;;11.10;83.60;;;;;;4590160;19;20397;-31
2023/04/04 01:24:15;;;;;;;8.07;4.47;;;11.10;83.70;;;;;;4589893;19;20433;-30
2023/04/04 01:25:47;;;;;;;;;;;11.00;83.70;;;;;;4590899;19;20443;-30
2023/04/04 01:27:19;;;;;;;9.53;3.97;;;11.10;84.00;;;;;;4590123;19;20321;-32
2023/04/04 01:28:50;;;;;;;9.95;5.15;;;11.10;83.90;;;;;;4590857;19;20500;-31
2023/04/04 01:30:22;;;;;;;7.83;4.20;;;11.10;84.00;;;;;;4590393;19;20006;-31
2023/04/04 01:32:00;;;;;;;8.53;3.80;;;11.10;84.20;;;;;;4589861;19;20531;-35
2023/04/04 01:33:55;;;;;;;9.60;4.10;;;11.20;84.20;;;;;;4589630;19;20421;-35
2023/04/04 01:35:51;;;;;;;8.40;3.80;;;11.10;84.00;;;;;;4588563;19;20428;-31
2023/04/04 01:37:26;;;;;;;9.07;4.33;;;11.10;84.00;;;;;;4588688;19;21015;-32
2023/04/04 01:39:09;;;;;;;8.53;4.43;;;11.10;84.20;;;;;;4588728;19;20485;-31
2023/04/04 01:40:47;;;;;;;6.57;3.50;;;11.10;84.00;;;;;;4588683;19;20535;-31
2023/04/04 01:42:21;;;;;;;12.23;4.77;;;11.00;84.00;;;;;;4588681;19;20472;-32
2023/04/04 01:43:52;;;;;;;7.30;3.87;;;11.00;84.30;;;;;;4588335;19;20440;-32
2023/04/04 01:45:28;;;;;;;9.60;3.87;;;11.10;84.10;;;;;;4588405;19;20877;-31
2023/04/04 01:47:00;;;;;;;7.80;3.75;;;11.00;84.10;;;;;;4588212;19;20429;-32
2023/04/04 01:48:31;;;;;;;;;;;11.00;84.20;;;;;;4589553;19;20026;-31
2023/04/04 01:50:03;;;;;;;9.02;4.00;;;11.10;84.40;;;;;;4588010;19;20340;-31
2023/04/04 01:51:39;;;;;;;6.20;3.50;;;11.00;84.10;;;;;;4588622;19;20009;-33
2023/04/04 01:53:10;;;;;;;;;;;11.00;84.10;;;;;;4588850;19;20654;-32
2023/04/04 01:54:41;;;;;;;7.18;4.18;;;11.00;84.60;;;;;;4588629;19;19927;-32
2023/04/04 01:56:14;;;;;;;7.43;3.57;;;11.00;84.40;;;;;;4588203;19;20025;-32
2023/04/04 01:57:46;;;;;;;7.07;3.57;;;11.00;84.80;;;;;;4588466;19;20433;-31
2023/04/04 01:59:19;;;;;;;8.47;4.20;;;11.00;84.50;;;;;;4587911;19;20488;-31
2023/04/04 02:00:52;;;;;;;11.53;4.37;;;10.90;84.50;;;;;;4588161;19;20424;-30
2023/04/04 02:02:26;;;;;;;6.30;3.63;;;11.00;84.30;;;;;;4588579;19;20473;-30
2023/04/04 02:03:57;;;;;;;;;;;11.00;84.30;;;;;;4589804;19;20448;-30
2023/04/04 02:05:28;;;;;;;9.40;3.43;;;11.00;84.70;;;;;;4588098;19;19915;-30
2023/04/04 02:07:01;;;;;;;8.50;3.40;;;11.00;84.50;;;;;;4587770;19;20567;-31
2023/04/04 02:08:32;;;;;;;;;;;11.10;84.60;;;;;;4588317;19;20440;-30
2023/04/04 02:10:04;;;;;;;6.43;3.87;;;11.00;84.30;;;;;;4588232;19;19913;-31
2023/04/04 02:11:36;;;;;;;8.13;4.15;;;11.00;84.20;;;;;;4588195;19;20928;-30
2023/04/04 02:13:09;;;;;;;8.53;4.33;;;11.00;84.30;;;;;;4589475;19;20014;-32
2023/04/04 02:14:40;;;;;;;7.18;4.25;;;11.00;84.30;;;;;;4590414;19;20417;-32
2023/04/04 02:16:14;;;;;;;9.23;4.10;;;11.00;84.30;;;;;;4590284;19;20344;-31
2023/04/04 02:17:48;;;;;;;;;;;11.00;84.60;;;;;;4591044;19;20472;-31
2023/04/04 02:19:19;;;;;;;7.87;3.33;;;11.00;84.80;;;;;;4590202;19;19919;-31
2023/04/04 02:20:56;;;;;;;9.20;4.20;;;11.00;84.90;;;;;;4589601;19;20828;-31
2023/04/04 02:22:29;;;;;;;7.53;4.03;;;11.10;84.90;;;;;;4590028;19;21060;-32
2023/04/04 02:24:01;;;;;;;7.77;3.63;;;11.00;84.50;;;;;;4588818;19;20436;-32
2023/04/04 02:25:32;;;;;;;7.68;3.83;;;11.00;84.50;;;;;;4589513;19;20445;-31
2023/04/04 02:27:05;;;;;;;6.17;3.57;;;11.00;84.80;;;;;;4590673;19;20034;-32
2023/04/04 02:28:36;;;;;;;7.20;3.42;;;11.00;84.90;;;;;;4589707;19;20520;-30
2023/04/04 02:30:08;;;;;;;7.65;3.95;;;11.00;84.90;;;;;;4589656;19;20007;-32
2023/04/04 02:31:41;;;;;;;6.67;4.40;;;11.00;85.20;;;;;;4589532;19;20016;-31
2023/04/04 02:33:14;;;;;;;6.63;3.73;;;11.00;85.00;;;;;;4589851;19;20425;-34
2023/04/04 02:34:47;;;;;;;8.47;3.43;;;11.00;85.00;;;;;;4589776;19;20540;-30
2023/04/04 02:36:20;;;;;;;6.87;3.13;;;11.00;85.00;;;;;;4590174;19;20437;-30
2023/04/04 02:37:52;;;;;;;8.93;4.38;;;11.10;85.30;;;;;;4590287;19;20537;-34
2023/04/04 02:39:23;;;;;;;11.13;5.07;;;11.10;85.40;;;;;;4590416;19;20011;-30
2023/04/04 02:40:55;;;;;;;10.50;4.40;;;11.10;85.20;;;;;;4589524;19;20014;-32
2023/04/04 02:42:28;;;;;;;9.00;3.70;;;11.10;85.00;;;;;;4590248;19;20019;-30
2023/04/04 02:43:59;;;;;;;6.28;3.40;;;11.00;84.60;;;;;;4589966;19;20420;-30
2023/04/04 02:45:31;;;;;;;6.10;3.15;;;11.00;84.30;;;;;;4590173;19;20006;-30
2023/04/04 02:47:06;;;;;;;6.57;3.80;;;11.10;84.30;;;;;;4589728;19;20018;-31
2023/04/04 02:48:38;;;;;;;9.30;3.60;;;11.00;83.90;;;;;;4588434;19;20480;-30
2023/04/04 02:50:12;;;;;;;7.90;3.73;;;11.00;83.90;;;;;;4588765;19;21067;-31
2023/04/04 02:51:44;;;;;;;8.00;3.77;;;11.00;84.40;;;;;;4590217;19;20425;-32
2023/04/04 02:53:16;;;;;;;6.40;3.30;;;11.00;84.10;;;;;;4589442;19;20425;-32
2023/04/04 02:54:49;;;;;;;;;;;11.00;83.60;;;;;;4590737;19;20524;-32
2023/04/04 02:56:20;;;;;;;7.22;3.40;;;11.00;84.10;;;;;;4590148;19;19943;-32
2023/04/04 02:57:52;;;;;;;6.82;3.15;;;11.10;83.90;;;;;;4587797;19;20014;-30
2023/04/04 02:59:24;;;;;;;8.77;3.67;;;11.10;83.80;;;;;;4589010;19;20523;-33
2023/04/04 03:00:57;;;;;;;5.60;2.93;;;11.10;83.60;;;;;;4588229;19;20437;-30
2023/04/04 03:02:29;;;;;;;9.70;3.40;;;11.20;83.70;;;;;;4589504;19;20488;-31
2023/04/04 03:04:02;;;;;;;6.10;3.00;;;11.20;83.90;;;;;;4588079;19;20014;-32
2023/04/04 03:05:34;;;;;;;6.50;3.27;;;11.30;83.70;;;;;;4588006;19;20520;-32
2023/04/04 03:07:05;;;;;;;8.68;3.70;;;11.30;83.40;;;;;;4589207;19;20472;-30
2023/04/04 03:08:38;;;;;;;7.57;3.70;;;11.30;83.60;;;;;;4588686;19;20468;-30
2023/04/04 03:10:11;;;;;;;7.50;3.60;;;11.40;83.10;;;;;;4588513;19;20520;-31
2023/04/04 03:11:45;;;;;;;8.20;3.77;;;11.40;82.90;;;;;;4589440;19;20440;-34
2023/04/04 03:13:17;;;;;;;7.18;3.17;;;11.40;83.40;;;;;;4589782;19;20477;-31
2023/04/04 03:14:49;;;;;;;6.87;4.43;;;11.50;82.70;;;;;;4589900;19;20003;-32
2023/04/04 03:16:21;;;;;;;6.90;3.15;;;11.50;82.40;;;;;;4589195;19;20445;-32
2023/04/04 03:17:53;;;;;;;10.47;4.60;;;11.50;82.30;;;;;;4587818;19;20015;-30
2023/04/04 03:19:25;;;;;;;6.30;3.50;;;11.50;82.40;;;;;;4588503;19;20417;-31
2023/04/04 03:20:58;;;;;;;6.93;3.50;;;11.50;82.50;;;;;;4588030;19;20420;-33
2023/04/04 03:22:30;;;;;;;6.00;3.30;;;11.50;82.30;;;;;;4588473;19;20795;-32
2023/04/04 03:24:01;;;;;;;8.10;3.08;;;11.50;82.10;;;;;;4587941;19;20446;-30
2023/04/04 03:25:33;;;;;;;6.68;3.20;;;11.50;82.40;;;;;;4588787;19;20015;-31
2023/04/04 03:27:04;;;;;;;7.45;3.72;;;11.50;81.80;;;;;;4588297;19;20014;-31
2023/04/04 03:28:35;;;;;;;7.88;3.13;;;11.40;81.70;;;;;;4588346;19;20034;-30
2023/04/04 03:30:07;;;;;;;;;;;11.50;82.00;;;;;;4588274;19;20018;-31
2023/04/04 03:31:40;;;;;;;7.30;3.00;;;11.50;82.80;;;;;;4589909;19;19962;-33
2023/04/04 03:33:12;;;;;;;8.50;3.50;;;11.50;82.20;;;;;;4590231;19;20025;-31
2023/04/04 03:34:43;;;;;;;8.95;3.00;;;11.40;81.80;;;;;;4593389;19;20485;-31
2023/04/04 03:36:15;;;;;;;8.63;3.13;;;11.50;81.80;;;;;;4592698;19;20010;-30
2023/04/04 03:37:46;;;;;;;7.03;2.92;;;11.50;81.90;;;;;;4593206;19;20456;-32
2023/04/04 03:42:07;;;;;;;5.93;2.80;;;11.50;81.40;;;;;;4607378;19;21068;-31
2023/04/04 03:43:38;;;;;;;6.55;3.05;;;11.30;81.40;;;;;;4612167;19;20454;-31
2023/04/04 03:45:10;;;;;;;6.70;2.80;;;11.30;81.80;;;;;;4612888;19;20037;-31
2023/04/04 03:46:41;;;;;;;5.33;2.77;;;11.40;81.90;;;;;;4611890;19;20021;-32
2023/04/04 03:48:12;;;;;;;5.28;2.95;;;11.50;81.90;;;;;;4611183;19;20449;-33
2023/04/04 03:49:44;;;;;;;6.60;2.88;;;11.50;81.10;;;;;;4613051;19;20014;-31
2023/04/04 03:51:25;;;;;;;6.13;2.28;;;11.50;80.90;;;;;;4611624;19;20022;-31
2023/04/04 03:52:59;;;;;;;7.83;3.17;;;11.60;80.80;;;;;;4612432;19;20014;-32
2023/04/04 03:54:30;;;;;;;6.60;3.27;;;11.60;80.60;;;;;;4611232;19;20484;-31
2023/04/04 03:56:02;;;;;;;6.15;2.97;;;11.70;80.70;;;;;;4613179;19;20467;-31
2023/04/04 03:57:35;;;;;;;6.33;2.47;;;11.70;80.20;;;;;;4611902;19;20110;-32
2023/04/04 03:59:06;;;;;;;6.95;2.50;;;11.70;80.40;;;;;;4612690;19;20468;-31
2023/04/04 04:00:37;;;;;;;7.57;2.53;;;11.70;79.90;;;;;;4609124;19;20021;-31
2023/04/04 04:02:10;;;;;;;7.27;2.37;;;11.80;80.70;;;;;;4610531;19;20050;-31
2023/04/04 04:03:42;;;;;;;8.48;3.53;;;11.70;80.20;;;;;;4612177;19;20808;-32
2023/04/04 04:05:13;;;;;;;7.28;2.80;;;11.70;80.10;;;;;;4611521;19;20010;-30
2023/04/04 04:06:45;;;;;;;6.13;2.75;;;11.60;79.80;;;;;;4611201;19;20363;-31
2023/04/04 04:08:16;;;;;;;6.80;2.97;;;11.70;80.50;;;;;;4610557;19;20459;-31
2023/04/04 04:09:48;;;;;;;5.65;2.90;;;11.70;80.40;;;;;;4609986;19;20080;-31
2023/04/04 04:11:19;;;;;;;7.15;3.20;;;11.60;80.50;;;;;;4611799;19;20014;-31
2023/04/04 04:12:50;;;;;;;11.18;4.03;;;11.60;80.30;;;;;;4610777;19;20100;-31
2023/04/04 04:14:22;;;;;;;8.55;4.00;;;11.50;80.50;;;;;;4610584;19;20016;-31
2023/04/04 04:15:54;;;;;;;7.63;3.70;;;11.50;80.40;;;;;;4611283;19;20018;-30
2023/04/04 04:17:26;;;;;;;7.88;3.53;;;11.60;81.40;;;;;;4612499;19;20062;-31
2023/04/04 04:18:59;;;;;;;8.53;3.77;;;11.60;80.90;;;;;;4611683;19;20049;-32
2023/04/04 04:20:30;;;;;;;;;;;11.60;80.70;;;;;;4612393;19;20480;-31
2023/04/04 04:22:01;;;;;;;8.70;3.10;;;11.60;81.00;;;;;;4592094;19;19952;-30
2023/04/04 04:23:32;;;;;;;6.43;3.03;;;11.60;80.30;;;;;;4610765;19;21067;-30
2023/04/04 04:25:04;;;;;;;6.25;3.08;;;11.50;80.30;;;;;;4612584;19;20070;-30
2023/04/04 04:26:35;;;;;;;6.65;2.85;;;11.40;80.60;;;;;;4608503;19;20093;-30
2023/04/04 04:28:07;;;;;;;7.97;2.90;;;11.40;80.80;;;;;;4611197;19;20422;-30
2023/04/04 04:29:38;;;;;;;6.03;2.80;;;11.40;80.70;;;;;;4611568;19;20033;-30
2023/04/04 04:31:09;;;;;;;7.47;3.45;;;11.40;81.30;;;;;;4608793;19;20467;-30
2023/04/04 04:32:41;;;;;;;7.65;3.50;;;11.40;81.10;;;;;;4609947;19;20007;-30
2023/04/04 04:34:13;;;;;;;6.87;3.53;;;11.40;81.40;;;;;;4611499;19;20006;-30
2023/04/04 04:35:44;;;;;;;8.02;2.92;;;11.40;81.20;;;;;;4612187;19;20498;-30
2023/04/04 04:37:16;;;;;;;4.68;2.40;;;11.30;80.90;;;;;;4611331;19;20014;-30
2023/04/04 04:38:48;;;;;;;5.97;2.73;;;11.20;80.60;;;;;;4610685;19;20513;-30
2023/04/04 04:40:20;;;;;;;5.82;2.85;;;11.10;80.50;;;;;;4611319;19;20484;-30
2023/04/04 04:41:52;;;;;;;5.88;2.65;;;11.10;80.60;;;;;;4609879;19;20074;-30
2023/04/04 04:43:24;;;;;;;7.03;3.07;;;11.10;80.60;;;;;;4611002;19;20077;-31
2023/04/04 04:44:55;;;;;;;6.53;3.00;;;11.10;80.80;;;;;;4612467;19;20448;-30
2023/04/04 04:46:26;;;;;;;8.23;3.22;;;11.10;81.00;;;;;;4611168;19;20010;-30
2023/04/04 04:47:58;;;;;;;4.90;2.73;;;11.20;81.00;;;;;;4610032;19;20017;-30
2023/04/04 04:49:30;;;;;;;4.15;2.70;;;11.10;80.80;;;;;;4612357;19;20499;-30
2023/04/04 04:51:03;;;;;;;8.30;3.03;;;11.00;80.70;;;;;;4611711;19;20377;-30
2023/04/04 04:52:37;;;;;;;7.50;2.80;;;11.00;80.90;;;;;;4590857;19;20894;-30
2023/04/04 04:54:10;;;;;;;6.90;3.00;;;10.90;81.00;;;;;;4593147;19;20495;-30
2023/04/04 04:55:42;;;;;;;5.95;2.78;;;11.00;81.00;;;;;;4592415;19;21071;-30
2023/04/04 04:57:13;;;;;;;7.93;3.20;;;11.00;81.30;;;;;;4593372;19;20030;-30
2023/04/04 04:58:46;;;;;;;8.85;2.97;;;11.10;81.50;;;;;;4592080;19;21114;-30
2023/04/04 05:00:19;;;;;;;8.20;4.33;;;11.10;81.70;;;;;;4592140;19;20021;-30
2023/04/04 05:01:50;;;;;;;7.37;3.10;;;11.20;81.50;;;;;;4592844;19;20499;-30
2023/04/04 05:03:22;;;;;;;8.80;3.10;;;11.10;81.40;;;;;;4592272;19;20445;-30
2023/04/04 05:04:53;;;;;;;6.45;2.60;;;11.10;81.10;;;;;;4593569;19;20372;-30
2023/04/04 05:06:24;;;;;;;7.22;2.88;;;11.10;81.50;;;;;;4593452;19;20022;-30
2023/04/04 05:07:56;;;;;;;6.82;2.67;;;11.10;81.30;;;;;;4593285;19;20034;-30
2023/04/04 05:09:27;;;;;;;9.55;2.88;;;11.20;81.40;;;;;;4592980;19;20355;-30
2023/04/04 05:10:58;;;;;;;8.82;3.10;;;11.20;81.40;;;;;;4593809;19;20017;-30
2023/04/04 05:12:31;;;;;;;6.67;2.83;;;11.20;81.50;;;;;;4593136;19;20014;-30
2023/04/04 05:14:03;;;;;;;5.72;3.13;;;11.20;81.10;;;;;;4591699;19;20457;-30
2023/04/04 05:15:35;;;;;;;5.13;2.13;;;11.10;80.60;;;;;;4593688;19;20010;-29
2023/04/04 05:17:07;;;;;;;6.83;2.33;;;11.10;80.40;;;;;;4592391;19;20026;-29
2023/04/04 05:18:38;;;;;;;7.38;2.22;;;11.10;81.30;;;;;;4592670;19;20548;-30
2023/04/04 05:20:10;;;;;;;6.95;2.70;;;11.20;80.80;;;;;;4591864;19;20344;-30
2023/04/04 05:21:42;;;;;;;6.20;2.70;;;11.20;80.70;;;;;;4592565;19;20412;-29
2023/04/04 05:23:15;;;;;;;5.10;2.10;;;11.40;80.90;;;;;;4592906;19;20494;-30
2023/04/04 05:24:47;;;;;;;5.10;2.33;;;11.50;81.00;;;;;;4593046;19;20460;-30
2023/04/04 05:26:20;;;;;;;6.80;2.70;;;11.50;80.40;;;;;;4592611;19;20461;-30
2023/04/04 05:27:51;;;;;;;5.18;2.13;;;11.50;80.30;;;;;;4592774;19;20499;-30
2023/04/04 05:29:23;;;;;;;6.40;2.70;;;11.50;80.50;;;;;;4592115;19;20071;-30
2023/04/04 05:30:54;;;;;;;5.05;2.47;;;11.50;80.40;;;;;;4591697;19;20429;-30
2023/04/04 05:32:25;;;;;;;5.70;2.55;;;11.50;80.20;;;;;;4592559;19;20006;-30
2023/04/04 05:33:57;;;;;;;5.10;2.10;;;11.40;80.60;;;;;;4591485;19;20074;-30
2023/04/04 05:35:30;;;;;;;4.73;2.53;;;11.40;80.00;;;;;;4592069;19;20452;-30
2023/04/04 05:37:01;;;;;;;9.98;2.20;;;11.50;80.50;;;;;;4592626;19;20751;-30
2023/04/04 05:38:33;;;;;;;4.85;2.53;;;11.50;80.10;;;;;;4593060;19;20381;-30
2023/04/04 05:40:07;;;;;;;8.13;2.80;;;11.50;80.10;;;;;;4591474;19;20106;-30
2023/04/04 05:41:39;;;;;;;6.30;2.47;;;11.40;80.00;;;;;;4592390;19;21054;-30
2023/04/04 05:43:11;;;;;;;6.43;2.95;;;11.30;79.60;;;;;;4592982;19;20421;-30
2023/04/04 05:44:44;;;;;;;4.77;2.40;;;11.30;79.60;;;;;;4592784;19;20471;-30
2023/04/04 05:46:16;;;;;;;8.00;2.87;;;11.30;79.40;;;;;;4591003;19;21012;-30
2023/04/04 05:47:48;;;;;;;5.80;3.10;;;11.40;79.50;;;;;;4592194;19;20467;-30
2023/04/04 05:49:19;;;;;;;7.82;3.40;;;11.40;80.10;;;;;;4592520;19;20345;-30
2023/04/04 05:50:53;;;;;;;6.93;2.97;;;11.50;80.90;;;;;;4590856;19;20344;-30
2023/04/04 05:52:25;;;;;;;6.03;2.47;;;11.80;80.00;;;;;;4591898;19;20517;-30
2023/04/04 05:53:56;;;;;;;4.38;2.53;;;11.90;79.10;;;;;;4592157;19;20417;-30
2023/04/04 05:55:29;;;;;;;6.17;2.50;;;11.80;78.80;;;;;;4592372;19;20002;-30
2023/04/04 05:57:00;;;;;;;6.28;2.65;;;11.70;78.60;;;;;;4591921;19;20448;-30
2023/04/04 05:58:33;;;;;;;4.87;2.30;;;11.70;78.90;;;;;;4591041;19;20364;-30
2023/04/04 06:00:08;;;;;;;6.20;2.63;;;11.60;78.00;;;;;;4590366;19;20564;-30
2023/04/04 06:02:00;;;;;;;9.07;2.60;;;11.60;78.10;;;;;;4591623;19;20405;-30
2023/04/04 06:03:38;;;;;;;4.73;2.10;;;11.60;79.00;;;;;;4588904;19;20969;-30
2023/04/04 06:05:10;;;;;;;7.13;3.10;;;11.60;79.00;;;;;;4591592;19;20413;-30
2023/04/04 06:06:42;;;;;;;7.80;2.57;;;11.60;79.20;;;;;;4591867;19;20014;-30
2023/04/04 06:08:15;;;;;;;6.07;2.40;;;11.50;77.80;;;;;;4592017;19;20417;-30
2023/04/04 06:09:47;;;;;;;5.13;2.38;;;11.40;78.40;;;;;;4592098;19;20421;-30
2023/04/04 06:11:18;;;;;;;6.97;2.22;;;11.40;78.70;;;;;;4591690;19;20412;-30
2023/04/04 06:12:50;;;;;;;5.60;2.80;;;11.40;78.90;;;;;;4591958;19;20017;-30
2023/04/04 06:14:23;;;;;;;7.83;2.30;;;11.40;78.80;;;;;;4592283;19;20471;-30
2023/04/04 06:15:54;;;;;;;5.10;2.72;;;11.40;78.80;;;;;;4591605;19;21011;-30
2023/04/04 06:17:27;;;;;;;9.13;2.70;;;11.40;78.50;;;;;;4591934;19;20006;-30
2023/04/04 06:18:58;;;;;;;6.20;2.95;;;11.50;78.50;;;;;;4592099;19;20464;-30
2023/04/04 06:20:30;;;;;;;4.93;2.60;;;11.50;78.50;;;;;;4590745;19;20014;-30
2023/04/04 06:22:02;;;;;;;;;;;11.50;78.00;;;;;;4591266;19;20018;-30
2023/04/04 06:23:33;;;;;;;6.13;2.70;;;11.40;77.90;;;;;;4591639;19;19925;-30
2023/04/04 06:25:05;;;;;;;5.93;2.65;;;11.40;77.50;;;;;;4591758;19;20794;-30
2023/04/04 06:26:37;;;;;;;7.07;2.43;;;11.40;77.80;;;;;;4591528;19;20018;-30
2023/04/04 06:28:09;;;;;;;4.45;1.80;;;11.40;77.60;;;;;;4591425;19;21016;-30
2023/04/04 06:29:41;;;;;;;5.63;1.97;;;11.40;76.90;;;;;;4590677;19;20017;-30
2023/04/04 06:31:12;;;;;;;4.60;1.88;;;11.50;77.60;;;;;;4591411;19;20417;-30
2023/04/04 06:32:45;;;;;;;5.97;2.00;;;11.50;77.80;;;;;;4591547;19;20010;-30
2023/04/04 06:36:07;;;;;;;5.30;2.13;;;11.60;78.30;;;;;;4591454;19;20006;-30
2023/04/04 06:37:38;;;;;;;6.10;2.47;;;11.60;78.40;;;;;;4589986;19;20546;-30
2023/04/04 06:39:11;;;;;;;5.37;1.93;;;11.60;78.20;;;;;;4591168;19;20420;-30
2023/04/04 06:40:43;;;;;;;3.77;1.70;;;11.50;76.50;;;;;;4589001;19;20469;-30
2023/04/04 06:42:14;;;;;;;5.97;2.33;;;11.50;77.20;;;;;;4590700;19;20428;-30
2023/04/04 06:43:47;;;;;;;4.60;2.25;;;11.40;77.20;;;;;;4591712;19;20005;-30
2023/04/04 06:45:19;;;;;;;5.23;2.23;;;11.40;76.10;;;;;;4588975;19;20070;-30
2023/04/04 06:46:52;;;;;;;3.67;2.10;;;11.40;76.50;;;;;;4589117;19;20461;-30
2023/04/04 06:48:26;;;;;;;4.97;2.13;;;11.40;77.30;;;;;;4590835;19;20424;-30
2023/04/04 06:49:57;;;;;;;7.10;3.87;;;11.50;77.60;;;;;;4590794;19;20011;-31
2023/04/04 06:51:30;;;;;;;9.80;7.07;;;11.50;77.50;;;;;;4591215;19;20440;-30
2023/04/04 06:53:03;;;;;;;8.23;4.60;;;11.40;76.70;;;;;;4590405;19;20499;-30
2023/04/04 06:54:34;;;;;;;6.05;3.80;;;11.40;76.70;;;;;;4589740;19;20463;-30
2023/04/04 06:56:06;;;;;;;;;;;11.40;76.10;;;;;;4589385;19;20428;-30
2023/04/04 06:57:38;;;;;;;5.63;3.00;;;11.40;76.40;;;;;;4590005;19;19914;-30
2023/04/04 06:59:11;;;;;;;7.30;2.90;;;11.50;75.90;;;;;;4590525;19;20027;-30
2023/04/04 07:00:43;;;;;;;4.83;2.20;;;11.50;76.00;;;;;;4589808;19;20017;-30
2023/04/04 07:02:17;;;;;;;5.03;3.13;;;11.50;76.90;;;;;;4591167;19;20451;-30
2023/04/04 07:03:55;;;;;;;7.63;4.67;;;11.50;76.40;;;;;;4590317;19;20107;-30
2023/04/04 07:05:27;;;;;;;6.67;3.50;;;11.50;76.00;;;;;;4590666;19;20775;-30
2023/04/04 07:06:58;;;;;;;3.03;1.47;;;11.50;75.90;;;;;;4591068;19;20507;-30
2023/04/04 07:08:31;;;;;;;3.80;1.83;;;11.40;74.40;;;;;;4591166;19;20968;-30
2023/04/04 07:10:02;;;;;;;6.97;3.17;;;11.30;74.60;;;;;;4590293;19;20494;-29
2023/04/04 07:11:34;;;;;;;7.50;3.45;;;11.30;75.00;;;;;;4589357;19;20459;-30
2023/04/04 07:13:05;;;;;;;3.97;2.78;;;11.40;74.80;;;;;;4590092;19;20030;-30
2023/04/04 07:14:37;;;;;;;5.20;2.85;;;11.40;74.60;;;;;;4589991;19;20523;-30
2023/04/04 07:16:10;;;;;;;7.57;2.77;;;11.40;74.60;;;;;;4588999;19;20018;-30
2023/04/04 07:17:42;;;;;;;4.23;2.17;;;11.50;75.00;;;;;;4590436;19;20444;-31
2023/04/04 07:19:16;;;;;;;5.75;2.40;;;11.50;75.30;;;;;;4590616;19;20527;-30
2023/04/04 07:20:51;;;;;;;4.50;1.97;;;11.50;75.40;;;;;;4587218;19;20431;-30
2023/04/04 07:22:23;;;;;;;;;;;11.50;75.50;;;;;;4589062;19;20505;-30
2023/04/04 07:23:54;;;;;;;5.07;2.72;;;11.50;76.00;;;;;;4590087;19;20332;-30
2023/04/04 07:25:26;;;;;;;5.53;1.90;;;11.40;74.70;;;;;;4590286;19;20018;-31
2023/04/04 07:26:57;;;;;;;3.60;1.80;;;11.50;75.00;;;;;;4590811;19;21052;-30
2023/04/04 07:28:28;;;;;;;5.97;2.40;;;11.50;75.90;;;;;;4590174;19;20469;-30
2023/04/04 07:30:00;;;;;;;3.80;1.52;;;11.50;75.70;;;;;;4590117;19;20023;-30
2023/04/04 07:31:31;;;;;;;4.88;2.03;;;11.50;76.00;;;;;;4590396;19;20018;-30
2023/04/04 07:33:03;;;;;;;5.13;2.55;;;11.50;75.30;;;;;;4589817;19;20511;-31
2023/04/04 07:34:36;;;;;;;7.00;2.00;;;11.50;74.50;;;;;;4588940;19;20018;-31
2023/04/04 07:36:07;;;;;;;4.50;1.83;;;11.50;74.50;;;;;;4588185;19;20831;-31
2023/04/04 07:37:39;;;;;;;4.43;2.20;;;11.50;75.20;;;;;;4589600;19;20014;-30
2023/04/04 07:39:10;;;;;;;5.07;1.83;;;11.50;75.30;;;;;;4589757;19;20014;-30
2023/04/04 07:40:44;;;;;;;4.80;1.90;;;11.50;75.20;;;;;;4587726;19;20473;-30
2023/04/04 07:42:21;;;;;;;5.37;1.90;;;11.60;76.00;;;;;;4590448;19;20040;-30
2023/04/04 07:43:54;;;;;;;7.13;2.57;;;11.50;74.70;;;;;;4590494;19;20441;-31
2023/04/04 07:45:25;;;;;;;7.55;2.50;;;11.50;75.20;;;;;;4592048;19;20461;-30
2023/04/04 07:46:56;;;;;;;4.70;2.25;;;11.50;75.80;;;;;;4589771;19;20424;-30
2023/04/04 07:48:28;;;;;;;4.57;2.13;;;11.50;75.40;;;;;;4588300;19;20020;-31
2023/04/04 07:50:00;;;;;;;4.70;2.10;;;11.50;75.80;;;;;;4591663;19;20479;-30
2023/04/04 07:51:31;;;;;;;7.10;2.72;;;11.50;76.00;;;;;;4591242;19;20011;-30
2023/04/04 07:53:03;;;;;;;5.32;2.47;;;11.30;76.10;;;;;;4588431;19;20487;-30
2023/04/04 07:54:34;;;;;;;5.50;2.22;;;11.40;76.00;;;;;;4591001;19;20043;-31
2023/04/04 07:56:20;;;;;;;4.57;2.17;;;11.40;75.70;;;;;;4589891;19;20009;-31
2023/04/04 07:57:53;;;;;;;3.22;1.42;;;11.50;75.80;;;;;;4586831;19;20507;-30
2023/04/04 07:59:25;;;;;;;7.30;4.20;;;11.50;75.90;;;;;;4590558;19;20040;-30
2023/04/04 08:00:56;;;;;;;7.47;4.55;;;11.40;75.10;;;;;;4589804;19;21032;-30
2023/04/04 08:02:28;;;;;;;;;;;11.40;75.30;;;;;;4591473;19;20371;-30
2023/04/04 08:03:59;;;;;;;5.90;2.90;;;11.40;75.60;;;;;;4591297;19;19919;-31
2023/04/04 08:05:30;;;;;;;5.40;2.60;;;11.40;74.90;;;;;;4590927;19;20465;-30
2023/04/04 08:07:02;;;;;;;5.05;2.38;;;11.40;75.50;;;;;;4588869;19;20015;-31
2023/04/04 08:08:33;;;;;;;4.18;2.00;;;11.40;75.50;;;;;;4591085;19;20022;-31